sensor_id;sensor_type;location;lat;lon;timestamp;temperature;humidity
13856;DHT22;6998;53.608;9.958;2022-07-29T00:01:16;14.10;99.90
13856;DHT22;6998;53.608;9.958;2022-07-29T00:03:43;14.00;99.90
13856;DHT22;6998;53.608;9.958;2022-07-29T00:06:10;14.00;99.90
13856;DHT22;6998;53.608;9.958;2022-07-29T00:08:37;14.00;99.90
13856;DHT22;6998;53.608;9.958;2022-07-29T00:11:04;13.90;99.90
13856;DHT22;6998;53.608;9.958;2022-07-29T00:13:30;13.90;99.90
13856;DHT22;6998;53.608;9.958;2022-07-29T00:15:57;13.90;99.90
13856;DHT22;6998;53.608;9.958;2022-07-29T00:18:25;13.80;99.90
13856;DHT22;6998;53.608;9.958;2022-07-29T00:20:52;13.70;99.90
13856;DHT22;6998;53.608;9.958;2022-07-29T00:23:19;13.80;99.90
13856;DHT22;6998;53.608;9.958;2022-07-29T00:25:46;13.70;99.90
13856;DHT22;6998;53.608;9.958;2022-07-29T00:28:13;13.70;99.90
13856;DHT22;6998;53.608;9.958;2022-07-29T00:30:39;13.60;99.90
13856;DHT22;6998;53.608;9.958;2022-07-29T00:33:08;13.60;99.90
13856;DHT22;6998;53.608;9.958;2022-07-29T00:35:37;13.60;99.90
13856;DHT22;6998;53.608;9.958;2022-07-29T00:38:09;13.60;99.90
13856;DHT22;6998;53.608;9.958;2022-07-29T00:40:35;13.50;99.90
13856;DHT22;6998;53.608;9.958;2022-07-29T00:43:02;13.50;99.90
13856;DHT22;6998;53.608;9.958;2022-07-29T00:45:29;13.40;99.90
13856;DHT22;6998;53.608;9.958;2022-07-29T00:47:56;13.40;99.90
13856;DHT22;6998;53.608;9.958;2022-07-29T00:50:23;13.30;99.90
13856;DHT22;6998;53.608;9.958;2022-07-29T00:52:52;13.30;99.90
13856;DHT22;6998;53.608;9.958;2022-07-29T00:55:20;13.30;99.90
13856;DHT22;6998;53.608;9.958;2022-07-29T00:57:47;13.30;99.90
13856;DHT22;6998;53.608;9.958;2022-07-29T01:00:16;13.30;99.90
13856;DHT22;6998;53.608;9.958;2022-07-29T01:02:44;13.20;99.90
13856;DHT22;6998;53.608;9.958;2022-07-29T01:05:11;13.30;99.90
13856;DHT22;6998;53.608;9.958;2022-07-29T01:07:39;13.20;99.90
13856;DHT22;6998;53.608;9.958;2022-07-29T01:10:09;13.20;99.90
13856;DHT22;6998;53.608;9.958;2022-07-29T01:12:38;13.10;99.90
13856;DHT22;6998;53.608;9.958;2022-07-29T01:15:06;13.10;99.90
13856;DHT22;6998;53.608;9.958;2022-07-29T01:17:36;13.10;99.90
13856;DHT22;6998;53.608;9.958;2022-07-29T01:20:10;13.10;99.90
13856;DHT22;6998;53.608;9.958;2022-07-29T01:26:03;13.00;99.90
13856;DHT22;6998;53.608;9.958;2022-07-29T01:29:00;13.00;99.90
13856;DHT22;6998;53.608;9.958;2022-07-29T01:31:33;13.00;99.90
13856;DHT22;6998;53.608;9.958;2022-07-29T01:34:05;13.00;99.90
13856;DHT22;6998;53.608;9.958;2022-07-29T01:36:35;12.90;99.90
13856;DHT22;6998;53.608;9.958;2022-07-29T01:39:07;13.00;99.90
13856;DHT22;6998;53.608;9.958;2022-07-29T01:41:37;12.90;99.90
13856;DHT22;6998;53.608;9.958;2022-07-29T01:44:12;12.90;99.90
13856;DHT22;6998;53.608;9.958;2022-07-29T01:46:45;12.90;99.90
13856;DHT22;6998;53.608;9.958;2022-07-29T01:49:21;12.90;99.90
13856;DHT22;6998;53.608;9.958;2022-07-29T01:51:51;12.90;99.90
13856;DHT22;6998;53.608;9.958;2022-07-29T01:54:25;12.80;99.90
13856;DHT22;6998;53.608;9.958;2022-07-29T01:56:55;12.80;99.90
13856;DHT22;6998;53.608;9.958;2022-07-29T01:59:25;12.80;99.90
13856;DHT22;6998;53.608;9.958;2022-07-29T02:01:54;12.80;99.90
13856;DHT22;6998;53.608;9.958;2022-07-29T02:04:21;12.80;99.90
13856;DHT22;6998;53.608;9.958;2022-07-29T02:06:50;12.80;99.90
13856;DHT22;6998;53.608;9.958;2022-07-29T02:09:19;12.80;99.90
13856;DHT22;6998;53.608;9.958;2022-07-29T02:11:51;12.70;99.90
13856;DHT22;6998;53.608;9.958;2022-07-29T02:14:20;12.70;99.90
13856;DHT22;6998;53.608;9.958;2022-07-29T02:16:52;12.70;99.90
13856;DHT22;6998;53.608;9.958;2022-07-29T02:19:23;12.70;99.90
13856;DHT22;6998;53.608;9.958;2022-07-29T02:21:53;12.80;99.90
13856;DHT22;6998;53.608;9.958;2022-07-29T02:24:22;12.80;99.90
13856;DHT22;6998;53.608;9.958;2022-07-29T02:26:50;12.80;99.90
13856;DHT22;6998;53.608;9.958;2022-07-29T02:29:19;12.80;99.90
13856;DHT22;6998;53.608;9.958;2022-07-29T02:31:49;12.80;99.90
13856;DHT22;6998;53.608;9.958;2022-07-29T02:34:18;12.80;99.90
13856;DHT22;6998;53.608;9.958;2022-07-29T02:36:47;12.80;99.90
13856;DHT22;6998;53.608;9.958;2022-07-29T02:39:15;12.90;99.90
13856;DHT22;6998;53.608;9.958;2022-07-29T02:41:46;12.80;99.90
13856;DHT22;6998;53.608;9.958;2022-07-29T02:44:16;12.90;99.90
13856;DHT22;6998;53.608;9.958;2022-07-29T02:46:49;12.90;99.90
13856;DHT22;6998;53.608;9.958;2022-07-29T02:49:30;12.90;99.90
13856;DHT22;6998;53.608;9.958;2022-07-29T02:52:00;12.90;99.90
13856;DHT22;6998;53.608;9.958;2022-07-29T02:54:31;12.90;99.90
13856;DHT22;6998;53.608;9.958;2022-07-29T02:57:03;12.90;99.90
13856;DHT22;6998;53.608;9.958;2022-07-29T02:59:34;12.90;99.90
13856;DHT22;6998;53.608;9.958;2022-07-29T03:02:04;12.90;99.90
13856;DHT22;6998;53.608;9.958;2022-07-29T03:04:32;13.00;99.90
13856;DHT22;6998;53.608;9.958;2022-07-29T03:07:00;13.10;99.90
13856;DHT22;6998;53.608;9.958;2022-07-29T03:09:28;13.00;99.90
13856;DHT22;6998;53.608;9.958;2022-07-29T03:11:56;13.00;99.90
13856;DHT22;6998;53.608;9.958;2022-07-29T03:14:23;13.20;99.90
13856;DHT22;6998;53.608;9.958;2022-07-29T03:16:51;13.10;99.90
13856;DHT22;6998;53.608;9.958;2022-07-29T03:19:19;13.10;99.90
13856;DHT22;6998;53.608;9.958;2022-07-29T03:21:47;13.10;99.90
13856;DHT22;6998;53.608;9.958;2022-07-29T03:24:27;13.10;99.90
13856;DHT22;6998;53.608;9.958;2022-07-29T03:26:55;13.20;99.90
13856;DHT22;6998;53.608;9.958;2022-07-29T03:29:22;13.20;99.90
13856;DHT22;6998;53.608;9.958;2022-07-29T03:31:49;13.20;99.90
13856;DHT22;6998;53.608;9.958;2022-07-29T03:34:16;13.20;99.90
13856;DHT22;6998;53.608;9.958;2022-07-29T03:36:44;13.20;99.90
13856;DHT22;6998;53.608;9.958;2022-07-29T03:39:13;13.30;99.90
13856;DHT22;6998;53.608;9.958;2022-07-29T03:41:42;13.30;99.90
13856;DHT22;6998;53.608;9.958;2022-07-29T03:44:11;13.30;99.90
13856;DHT22;6998;53.608;9.958;2022-07-29T03:46:39;13.30;99.90
13856;DHT22;6998;53.608;9.958;2022-07-29T03:49:06;13.40;99.90
13856;DHT22;6998;53.608;9.958;2022-07-29T03:51:35;13.40;99.90
13856;DHT22;6998;53.608;9.958;2022-07-29T03:54:04;13.40;99.90
13856;DHT22;6998;53.608;9.958;2022-07-29T03:56:34;13.40;99.90
13856;DHT22;6998;53.608;9.958;2022-07-29T03:59:02;13.50;99.90
13856;DHT22;6998;53.608;9.958;2022-07-29T04:01:29;13.50;99.90
13856;DHT22;6998;53.608;9.958;2022-07-29T04:03:59;13.50;99.90
13856;DHT22;6998;53.608;9.958;2022-07-29T04:06:27;13.40;99.90
13856;DHT22;6998;53.608;9.958;2022-07-29T04:08:54;13.50;99.90
13856;DHT22;6998;53.608;9.958;2022-07-29T04:11:22;13.60;99.90
13856;DHT22;6998;53.608;9.958;2022-07-29T04:13:49;13.60;99.90
13856;DHT22;6998;53.608;9.958;2022-07-29T04:16:15;13.60;99.90
13856;DHT22;6998;53.608;9.958;2022-07-29T04:18:42;13.70;99.90
13856;DHT22;6998;53.608;9.958;2022-07-29T04:21:09;13.70;99.90
13856;DHT22;6998;53.608;9.958;2022-07-29T04:23:36;13.80;99.90
13856;DHT22;6998;53.608;9.958;2022-07-29T04:26:02;13.80;99.90
13856;DHT22;6998;53.608;9.958;2022-07-29T04:28:30;13.90;99.90
13856;DHT22;6998;53.608;9.958;2022-07-29T04:30:57;13.90;99.90
13856;DHT22;6998;53.608;9.958;2022-07-29T04:33:24;14.00;99.90
13856;DHT22;6998;53.608;9.958;2022-07-29T04:35:51;14.10;99.90
13856;DHT22;6998;53.608;9.958;2022-07-29T04:38:18;14.10;99.90
13856;DHT22;6998;53.608;9.958;2022-07-29T04:40:44;14.10;99.90
13856;DHT22;6998;53.608;9.958;2022-07-29T04:43:11;14.20;99.90
13856;DHT22;6998;53.608;9.958;2022-07-29T04:45:39;14.30;99.90
13856;DHT22;6998;53.608;9.958;2022-07-29T04:48:06;14.40;99.90
13856;DHT22;6998;53.608;9.958;2022-07-29T04:50:33;14.40;99.90
13856;DHT22;6998;53.608;9.958;2022-07-29T04:53:00;14.50;99.90
13856;DHT22;6998;53.608;9.958;2022-07-29T04:55:27;14.50;99.90
13856;DHT22;6998;53.608;9.958;2022-07-29T04:57:53;14.50;99.90
13856;DHT22;6998;53.608;9.958;2022-07-29T05:00:20;14.60;99.90
13856;DHT22;6998;53.608;9.958;2022-07-29T05:02:49;14.60;99.90
13856;DHT22;6998;53.608;9.958;2022-07-29T05:05:16;14.60;99.90
13856;DHT22;6998;53.608;9.958;2022-07-29T05:07:43;14.60;99.90
13856;DHT22;6998;53.608;9.958;2022-07-29T05:10:10;14.60;99.90
13856;DHT22;6998;53.608;9.958;2022-07-29T05:12:37;14.60;99.90
13856;DHT22;6998;53.608;9.958;2022-07-29T05:15:05;14.70;99.90
13856;DHT22;6998;53.608;9.958;2022-07-29T05:17:32;14.70;99.90
13856;DHT22;6998;53.608;9.958;2022-07-29T05:20:00;14.70;99.90
13856;DHT22;6998;53.608;9.958;2022-07-29T05:22:27;14.70;99.90
13856;DHT22;6998;53.608;9.958;2022-07-29T05:24:54;14.80;99.90
13856;DHT22;6998;53.608;9.958;2022-07-29T05:27:20;14.80;99.90
13856;DHT22;6998;53.608;9.958;2022-07-29T05:29:47;14.90;99.90
13856;DHT22;6998;53.608;9.958;2022-07-29T05:32:14;15.00;99.90
13856;DHT22;6998;53.608;9.958;2022-07-29T05:34:41;15.00;99.90
13856;DHT22;6998;53.608;9.958;2022-07-29T05:37:09;15.10;99.90
13856;DHT22;6998;53.608;9.958;2022-07-29T05:39:38;15.20;99.90
13856;DHT22;6998;53.608;9.958;2022-07-29T05:42:08;15.30;99.90
13856;DHT22;6998;53.608;9.958;2022-07-29T05:44:36;15.30;99.90
13856;DHT22;6998;53.608;9.958;2022-07-29T05:47:03;15.30;99.90
13856;DHT22;6998;53.608;9.958;2022-07-29T05:49:30;15.50;99.90
13856;DHT22;6998;53.608;9.958;2022-07-29T05:51:56;15.60;99.90
13856;DHT22;6998;53.608;9.958;2022-07-29T05:54:25;15.60;99.90
13856;DHT22;6998;53.608;9.958;2022-07-29T05:56:51;15.60;99.90
13856;DHT22;6998;53.608;9.958;2022-07-29T05:59:18;15.70;99.90
13856;DHT22;6998;53.608;9.958;2022-07-29T06:01:45;15.80;99.90
13856;DHT22;6998;53.608;9.958;2022-07-29T06:04:12;15.90;99.90
13856;DHT22;6998;53.608;9.958;2022-07-29T06:06:38;16.00;99.90
13856;DHT22;6998;53.608;9.958;2022-07-29T06:09:05;16.20;99.90
13856;DHT22;6998;53.608;9.958;2022-07-29T06:11:33;16.30;99.90
13856;DHT22;6998;53.608;9.958;2022-07-29T06:14:00;16.40;99.90
13856;DHT22;6998;53.608;9.958;2022-07-29T06:16:28;16.60;99.90
13856;DHT22;6998;53.608;9.958;2022-07-29T06:18:55;16.70;99.90
13856;DHT22;6998;53.608;9.958;2022-07-29T06:21:22;16.80;99.90
13856;DHT22;6998;53.608;9.958;2022-07-29T06:23:48;16.80;99.90
13856;DHT22;6998;53.608;9.958;2022-07-29T06:26:15;16.80;99.90
13856;DHT22;6998;53.608;9.958;2022-07-29T06:28:43;16.90;99.90
13856;DHT22;6998;53.608;9.958;2022-07-29T06:31:10;17.00;99.90
13856;DHT22;6998;53.608;9.958;2022-07-29T06:33:37;17.20;99.90
13856;DHT22;6998;53.608;9.958;2022-07-29T06:36:04;17.50;99.90
13856;DHT22;6998;53.608;9.958;2022-07-29T06:38:32;17.50;99.90
13856;DHT22;6998;53.608;9.958;2022-07-29T06:40:59;17.70;99.90
13856;DHT22;6998;53.608;9.958;2022-07-29T06:43:27;17.90;99.90
13856;DHT22;6998;53.608;9.958;2022-07-29T06:45:58;17.90;99.90
13856;DHT22;6998;53.608;9.958;2022-07-29T06:48:26;18.10;99.90
13856;DHT22;6998;53.608;9.958;2022-07-29T06:50:53;18.00;99.90
13856;DHT22;6998;53.608;9.958;2022-07-29T06:53:20;18.00;99.90
13856;DHT22;6998;53.608;9.958;2022-07-29T06:55:47;18.10;99.90
13856;DHT22;6998;53.608;9.958;2022-07-29T06:58:13;18.20;99.90
13856;DHT22;6998;53.608;9.958;2022-07-29T07:00:41;18.40;99.90
13856;DHT22;6998;53.608;9.958;2022-07-29T07:03:09;18.60;99.90
13856;DHT22;6998;53.608;9.958;2022-07-29T07:05:36;18.80;99.90
13856;DHT22;6998;53.608;9.958;2022-07-29T07:08:03;18.70;99.90
13856;DHT22;6998;53.608;9.958;2022-07-29T07:10:30;18.80;99.90
13856;DHT22;6998;53.608;9.958;2022-07-29T07:12:57;18.90;99.90
13856;DHT22;6998;53.608;9.958;2022-07-29T07:15:23;18.90;99.90
13856;DHT22;6998;53.608;9.958;2022-07-29T07:17:50;19.10;99.90
13856;DHT22;6998;53.608;9.958;2022-07-29T07:20:19;19.10;99.90
13856;DHT22;6998;53.608;9.958;2022-07-29T07:22:45;19.20;99.90
13856;DHT22;6998;53.608;9.958;2022-07-29T07:25:12;19.30;99.90
13856;DHT22;6998;53.608;9.958;2022-07-29T07:27:39;19.50;99.90
13856;DHT22;6998;53.608;9.958;2022-07-29T07:30:07;19.60;99.90
13856;DHT22;6998;53.608;9.958;2022-07-29T07:32:34;19.80;99.90
13856;DHT22;6998;53.608;9.958;2022-07-29T07:35:02;19.90;99.90
13856;DHT22;6998;53.608;9.958;2022-07-29T07:37:30;20.10;99.90
13856;DHT22;6998;53.608;9.958;2022-07-29T07:39:57;20.10;99.90
13856;DHT22;6998;53.608;9.958;2022-07-29T07:42:24;20.00;99.90
13856;DHT22;6998;53.608;9.958;2022-07-29T07:44:51;20.00;99.90
13856;DHT22;6998;53.608;9.958;2022-07-29T07:47:18;20.00;99.90
13856;DHT22;6998;53.608;9.958;2022-07-29T07:49:46;20.20;99.90
13856;DHT22;6998;53.608;9.958;2022-07-29T07:52:13;20.30;99.90
13856;DHT22;6998;53.608;9.958;2022-07-29T07:54:41;20.20;99.90
13856;DHT22;6998;53.608;9.958;2022-07-29T07:57:09;20.00;99.90
13856;DHT22;6998;53.608;9.958;2022-07-29T07:59:36;20.10;99.90
13856;DHT22;6998;53.608;9.958;2022-07-29T08:02:03;20.30;99.90
13856;DHT22;6998;53.608;9.958;2022-07-29T08:04:30;20.40;99.90
13856;DHT22;6998;53.608;9.958;2022-07-29T08:06:57;20.30;99.90
13856;DHT22;6998;53.608;9.958;2022-07-29T08:09:25;20.40;99.90
13856;DHT22;6998;53.608;9.958;2022-07-29T08:11:54;20.40;99.90
13856;DHT22;6998;53.608;9.958;2022-07-29T08:14:21;20.30;99.90
13856;DHT22;6998;53.608;9.958;2022-07-29T08:16:48;20.30;99.90
13856;DHT22;6998;53.608;9.958;2022-07-29T08:19:14;20.50;99.90
13856;DHT22;6998;53.608;9.958;2022-07-29T08:21:41;20.80;99.90
13856;DHT22;6998;53.608;9.958;2022-07-29T08:24:08;21.20;99.90
13856;DHT22;6998;53.608;9.958;2022-07-29T08:26:54;21.40;99.90
13856;DHT22;6998;53.608;9.958;2022-07-29T08:29:20;21.20;99.90
13856;DHT22;6998;53.608;9.958;2022-07-29T08:31:47;21.20;99.90
13856;DHT22;6998;53.608;9.958;2022-07-29T08:34:14;21.30;99.90
13856;DHT22;6998;53.608;9.958;2022-07-29T08:36:41;21.50;99.90
13856;DHT22;6998;53.608;9.958;2022-07-29T08:39:08;21.60;99.90
13856;DHT22;6998;53.608;9.958;2022-07-29T08:41:35;21.70;99.90
13856;DHT22;6998;53.608;9.958;2022-07-29T08:44:03;22.00;99.90
13856;DHT22;6998;53.608;9.958;2022-07-29T08:46:30;22.40;99.90
13856;DHT22;6998;53.608;9.958;2022-07-29T08:48:57;22.60;99.90
13856;DHT22;6998;53.608;9.958;2022-07-29T08:51:25;22.80;99.90
13856;DHT22;6998;53.608;9.958;2022-07-29T08:53:53;22.90;99.90
13856;DHT22;6998;53.608;9.958;2022-07-29T08:56:21;23.00;99.90
13856;DHT22;6998;53.608;9.958;2022-07-29T08:58:49;23.00;99.90
13856;DHT22;6998;53.608;9.958;2022-07-29T09:01:22;23.00;99.90
13856;DHT22;6998;53.608;9.958;2022-07-29T09:03:50;22.70;99.90
13856;DHT22;6998;53.608;9.958;2022-07-29T09:06:18;22.60;99.90
13856;DHT22;6998;53.608;9.958;2022-07-29T09:08:47;22.70;99.90
13856;DHT22;6998;53.608;9.958;2022-07-29T09:11:15;22.90;99.90
13856;DHT22;6998;53.608;9.958;2022-07-29T09:13:41;23.10;99.90
13856;DHT22;6998;53.608;9.958;2022-07-29T09:16:08;23.10;99.90
13856;DHT22;6998;53.608;9.958;2022-07-29T09:18:38;23.30;99.90
13856;DHT22;6998;53.608;9.958;2022-07-29T09:21:06;23.60;99.90
13856;DHT22;6998;53.608;9.958;2022-07-29T09:24:05;23.80;99.90
13856;DHT22;6998;53.608;9.958;2022-07-29T09:26:35;23.90;99.90
13856;DHT22;6998;53.608;9.958;2022-07-29T09:29:09;23.90;99.90
13856;DHT22;6998;53.608;9.958;2022-07-29T09:31:37;24.00;99.90
13856;DHT22;6998;53.608;9.958;2022-07-29T09:34:06;24.10;99.90
13856;DHT22;6998;53.608;9.958;2022-07-29T09:36:39;24.00;99.90
13856;DHT22;6998;53.608;9.958;2022-07-29T09:39:07;24.10;99.90
13856;DHT22;6998;53.608;9.958;2022-07-29T09:41:45;24.00;99.90
13856;DHT22;6998;53.608;9.958;2022-07-29T09:44:11;24.10;99.90
13856;DHT22;6998;53.608;9.958;2022-07-29T09:46:40;24.30;99.90
13856;DHT22;6998;53.608;9.958;2022-07-29T09:49:11;24.20;99.90
13856;DHT22;6998;53.608;9.958;2022-07-29T09:51:38;24.00;99.90
13856;DHT22;6998;53.608;9.958;2022-07-29T09:54:21;23.90;99.90
13856;DHT22;6998;53.608;9.958;2022-07-29T09:56:47;23.90;99.90
13856;DHT22;6998;53.608;9.958;2022-07-29T09:59:14;24.00;99.90
13856;DHT22;6998;53.608;9.958;2022-07-29T10:01:42;24.10;99.90
13856;DHT22;6998;53.608;9.958;2022-07-29T10:04:10;24.40;99.90
13856;DHT22;6998;53.608;9.958;2022-07-29T10:06:55;24.70;99.90
13856;DHT22;6998;53.608;9.958;2022-07-29T10:09:22;24.70;99.90
13856;DHT22;6998;53.608;9.958;2022-07-29T10:12:06;24.70;99.90
13856;DHT22;6998;53.608;9.958;2022-07-29T10:14:34;24.60;99.90
13856;DHT22;6998;53.608;9.958;2022-07-29T10:17:03;24.40;99.90
13856;DHT22;6998;53.608;9.958;2022-07-29T10:19:33;24.40;99.90
13856;DHT22;6998;53.608;9.958;2022-07-29T10:22:02;24.30;99.90
13856;DHT22;6998;53.608;9.958;2022-07-29T10:24:30;24.50;99.90
13856;DHT22;6998;53.608;9.958;2022-07-29T10:26:58;24.70;99.90
13856;DHT22;6998;53.608;9.958;2022-07-29T10:29:25;24.80;99.90
13856;DHT22;6998;53.608;9.958;2022-07-29T10:32:05;24.70;99.90
13856;DHT22;6998;53.608;9.958;2022-07-29T10:37:33;25.10;99.90
13856;DHT22;6998;53.608;9.958;2022-07-29T10:40:11;25.20;99.90
13856;DHT22;6998;53.608;9.958;2022-07-29T10:43:02;25.30;99.90
13856;DHT22;6998;53.608;9.958;2022-07-29T10:45:32;25.40;99.90
13856;DHT22;6998;53.608;9.958;2022-07-29T10:48:05;25.10;99.90
13856;DHT22;6998;53.608;9.958;2022-07-29T10:50:55;25.00;99.90
13856;DHT22;6998;53.608;9.958;2022-07-29T10:53:22;25.00;99.90
13856;DHT22;6998;53.608;9.958;2022-07-29T10:55:50;24.80;99.90
13856;DHT22;6998;53.608;9.958;2022-07-29T10:58:19;25.00;99.90
13856;DHT22;6998;53.608;9.958;2022-07-29T11:00:47;25.10;99.90
13856;DHT22;6998;53.608;9.958;2022-07-29T11:03:46;25.10;99.90
13856;DHT22;6998;53.608;9.958;2022-07-29T11:06:14;25.00;99.90
13856;DHT22;6998;53.608;9.958;2022-07-29T11:08:41;24.90;99.90
13856;DHT22;6998;53.608;9.958;2022-07-29T11:11:35;25.10;99.90
13856;DHT22;6998;53.608;9.958;2022-07-29T11:14:06;25.30;99.90
13856;DHT22;6998;53.608;9.958;2022-07-29T11:16:59;25.50;99.90
13856;DHT22;6998;53.608;9.958;2022-07-29T11:19:27;25.70;99.90
13856;DHT22;6998;53.608;9.958;2022-07-29T11:21:56;25.80;99.90
13856;DHT22;6998;53.608;9.958;2022-07-29T11:24:24;26.00;99.90
13856;DHT22;6998;53.608;9.958;2022-07-29T11:27:14;26.20;99.90
13856;DHT22;6998;53.608;9.958;2022-07-29T11:29:50;26.20;99.90
13856;DHT22;6998;53.608;9.958;2022-07-29T11:32:18;26.50;99.90
13856;DHT22;6998;53.608;9.958;2022-07-29T11:34:47;26.40;99.90
13856;DHT22;6998;53.608;9.958;2022-07-29T11:37:17;26.30;99.90
13856;DHT22;6998;53.608;9.958;2022-07-29T11:39:46;26.10;99.90
13856;DHT22;6998;53.608;9.958;2022-07-29T11:42:37;26.10;99.90
13856;DHT22;6998;53.608;9.958;2022-07-29T11:45:05;26.40;99.90
13856;DHT22;6998;53.608;9.958;2022-07-29T11:47:34;26.70;99.90
13856;DHT22;6998;53.608;9.958;2022-07-29T11:50:03;26.80;99.70
13856;DHT22;6998;53.608;9.958;2022-07-29T11:52:34;26.90;99.70
13856;DHT22;6998;53.608;9.958;2022-07-29T11:55:04;26.70;99.80
13856;DHT22;6998;53.608;9.958;2022-07-29T11:57:33;26.60;99.90
13856;DHT22;6998;53.608;9.958;2022-07-29T12:00:01;26.50;99.90
13856;DHT22;6998;53.608;9.958;2022-07-29T12:02:38;26.50;99.90
13856;DHT22;6998;53.608;9.958;2022-07-29T12:05:08;26.70;99.90
13856;DHT22;6998;53.608;9.958;2022-07-29T12:07:37;26.90;99.90
13856;DHT22;6998;53.608;9.958;2022-07-29T12:10:05;27.00;99.80
13856;DHT22;6998;53.608;9.958;2022-07-29T12:12:32;26.40;99.50
13856;DHT22;6998;53.608;9.958;2022-07-29T12:15:11;26.20;99.90
13856;DHT22;6998;53.608;9.958;2022-07-29T12:17:38;26.40;99.90
13856;DHT22;6998;53.608;9.958;2022-07-29T12:20:06;26.70;98.90
13856;DHT22;6998;53.608;9.958;2022-07-29T12:22:37;27.00;98.50
13856;DHT22;6998;53.608;9.958;2022-07-29T12:25:06;27.30;98.60
13856;DHT22;6998;53.608;9.958;2022-07-29T12:27:34;27.50;98.10
13856;DHT22;6998;53.608;9.958;2022-07-29T12:30:03;27.60;98.50
13856;DHT22;6998;53.608;9.958;2022-07-29T12:32:32;27.70;97.50
13856;DHT22;6998;53.608;9.958;2022-07-29T12:35:00;27.60;97.60
13856;DHT22;6998;53.608;9.958;2022-07-29T12:37:29;27.50;99.00
13856;DHT22;6998;53.608;9.958;2022-07-29T12:39:57;27.90;99.30
13856;DHT22;6998;53.608;9.958;2022-07-29T12:42:24;28.10;97.20
13856;DHT22;6998;53.608;9.958;2022-07-29T12:44:50;28.10;97.10
13856;DHT22;6998;53.608;9.958;2022-07-29T12:47:18;28.30;97.80
13856;DHT22;6998;53.608;9.958;2022-07-29T12:49:46;28.20;96.80
13856;DHT22;6998;53.608;9.958;2022-07-29T12:52:27;27.90;97.70
13856;DHT22;6998;53.608;9.958;2022-07-29T12:54:54;27.50;97.30
13856;DHT22;6998;53.608;9.958;2022-07-29T12:57:22;27.40;97.20
13856;DHT22;6998;53.608;9.958;2022-07-29T13:00:06;27.70;97.90
13856;DHT22;6998;53.608;9.958;2022-07-29T13:02:35;27.90;97.80
13856;DHT22;6998;53.608;9.958;2022-07-29T13:05:04;28.40;96.60
13856;DHT22;6998;53.608;9.958;2022-07-29T13:07:32;28.40;96.10
13856;DHT22;6998;53.608;9.958;2022-07-29T13:10:13;28.50;96.50
13856;DHT22;6998;53.608;9.958;2022-07-29T13:13:01;28.30;96.20
13856;DHT22;6998;53.608;9.958;2022-07-29T13:15:28;28.20;96.90
13856;DHT22;6998;53.608;9.958;2022-07-29T13:17:55;28.40;96.90
13856;DHT22;6998;53.608;9.958;2022-07-29T13:20:24;28.60;96.60
13856;DHT22;6998;53.608;9.958;2022-07-29T13:22:53;28.50;95.40
13856;DHT22;6998;53.608;9.958;2022-07-29T13:25:24;28.70;95.50
13856;DHT22;6998;53.608;9.958;2022-07-29T13:27:53;28.60;96.60
13856;DHT22;6998;53.608;9.958;2022-07-29T13:30:22;28.50;98.20
13856;DHT22;6998;53.608;9.958;2022-07-29T13:32:49;28.70;98.80
13856;DHT22;6998;53.608;9.958;2022-07-29T13:35:16;28.70;98.70
13856;DHT22;6998;53.608;9.958;2022-07-29T13:37:44;28.50;99.20
13856;DHT22;6998;53.608;9.958;2022-07-29T13:40:11;28.40;99.90
13856;DHT22;6998;53.608;9.958;2022-07-29T13:42:39;28.40;99.90
13856;DHT22;6998;53.608;9.958;2022-07-29T13:45:09;28.40;99.90
13856;DHT22;6998;53.608;9.958;2022-07-29T13:47:36;28.20;99.90
13856;DHT22;6998;53.608;9.958;2022-07-29T13:50:04;28.20;99.90
13856;DHT22;6998;53.608;9.958;2022-07-29T13:52:31;28.10;99.90
13856;DHT22;6998;53.608;9.958;2022-07-29T13:54:58;27.90;99.90
13856;DHT22;6998;53.608;9.958;2022-07-29T13:57:25;27.90;99.90
13856;DHT22;6998;53.608;9.958;2022-07-29T13:59:52;27.50;99.90
13856;DHT22;6998;53.608;9.958;2022-07-29T14:02:20;27.20;99.90
13856;DHT22;6998;53.608;9.958;2022-07-29T14:04:47;27.00;99.90
13856;DHT22;6998;53.608;9.958;2022-07-29T14:07:14;26.90;99.90
13856;DHT22;6998;53.608;9.958;2022-07-29T14:09:41;26.60;99.90
13856;DHT22;6998;53.608;9.958;2022-07-29T14:12:08;26.70;99.90
13856;DHT22;6998;53.608;9.958;2022-07-29T14:14:35;26.70;99.90
13856;DHT22;6998;53.608;9.958;2022-07-29T14:17:02;26.90;99.90
13856;DHT22;6998;53.608;9.958;2022-07-29T14:19:32;26.90;99.90
13856;DHT22;6998;53.608;9.958;2022-07-29T14:22:03;26.80;99.90
13856;DHT22;6998;53.608;9.958;2022-07-29T14:24:30;26.80;99.90
13856;DHT22;6998;53.608;9.958;2022-07-29T14:26:57;26.70;99.90
13856;DHT22;6998;53.608;9.958;2022-07-29T14:29:24;26.70;99.90
13856;DHT22;6998;53.608;9.958;2022-07-29T14:31:50;26.50;99.90
13856;DHT22;6998;53.608;9.958;2022-07-29T14:34:17;26.20;99.90
13856;DHT22;6998;53.608;9.958;2022-07-29T14:36:45;26.00;99.90
13856;DHT22;6998;53.608;9.958;2022-07-29T14:39:12;25.70;99.90
13856;DHT22;6998;53.608;9.958;2022-07-29T14:41:39;25.70;99.90
13856;DHT22;6998;53.608;9.958;2022-07-29T14:44:06;25.60;99.90
13856;DHT22;6998;53.608;9.958;2022-07-29T14:46:33;25.50;99.90
13856;DHT22;6998;53.608;9.958;2022-07-29T14:48:59;25.40;99.90
13856;DHT22;6998;53.608;9.958;2022-07-29T14:51:26;25.70;99.90
13856;DHT22;6998;53.608;9.958;2022-07-29T14:53:54;25.90;99.90
13856;DHT22;6998;53.608;9.958;2022-07-29T14:56:22;26.50;99.90
13856;DHT22;6998;53.608;9.958;2022-07-29T14:58:49;26.80;99.90
13856;DHT22;6998;53.608;9.958;2022-07-29T15:01:16;26.90;99.90
13856;DHT22;6998;53.608;9.958;2022-07-29T15:03:42;27.00;99.90
13856;DHT22;6998;53.608;9.958;2022-07-29T15:06:09;27.40;99.90
13856;DHT22;6998;53.608;9.958;2022-07-29T15:08:36;27.70;99.90
13856;DHT22;6998;53.608;9.958;2022-07-29T15:11:04;27.40;99.90
13856;DHT22;6998;53.608;9.958;2022-07-29T15:13:30;27.00;99.90
13856;DHT22;6998;53.608;9.958;2022-07-29T15:15:57;26.80;99.90
13856;DHT22;6998;53.608;9.958;2022-07-29T15:18:24;26.80;99.90
13856;DHT22;6998;53.608;9.958;2022-07-29T15:20:50;27.00;99.90
13856;DHT22;6998;53.608;9.958;2022-07-29T15:23:17;27.10;99.90
13856;DHT22;6998;53.608;9.958;2022-07-29T15:25:44;27.10;99.90
13856;DHT22;6998;53.608;9.958;2022-07-29T15:28:12;27.00;99.90
13856;DHT22;6998;53.608;9.958;2022-07-29T15:30:39;26.80;99.90
13856;DHT22;6998;53.608;9.958;2022-07-29T15:33:07;26.50;99.90
13856;DHT22;6998;53.608;9.958;2022-07-29T15:35:34;26.20;99.90
13856;DHT22;6998;53.608;9.958;2022-07-29T15:38:01;26.10;99.90
13856;DHT22;6998;53.608;9.958;2022-07-29T15:40:28;26.00;99.90
13856;DHT22;6998;53.608;9.958;2022-07-29T15:42:55;26.10;99.90
13856;DHT22;6998;53.608;9.958;2022-07-29T15:45:23;26.20;99.90
13856;DHT22;6998;53.608;9.958;2022-07-29T15:47:49;26.50;99.90
13856;DHT22;6998;53.608;9.958;2022-07-29T15:50:16;26.60;99.90
13856;DHT22;6998;53.608;9.958;2022-07-29T15:52:44;26.80;99.90
13856;DHT22;6998;53.608;9.958;2022-07-29T15:55:11;27.00;99.90
13856;DHT22;6998;53.608;9.958;2022-07-29T15:57:39;27.20;99.90
13856;DHT22;6998;53.608;9.958;2022-07-29T16:00:08;27.40;99.90
13856;DHT22;6998;53.608;9.958;2022-07-29T16:02:36;27.40;99.90